KRTN

Details ICAO KRTN
Name RATON MUNI CREWS FLD
Region United States
Timezone America/Denver (UTC-7.0)
Plans Departing 3
Arriving 4
Stats Elevation 6,352 ft / 1,936 m (AMSL)
Location 36.741554° -104.501542°
Runways 2
Magnetic Variation 7.715° E
Sunrise 2017-12-11 14:02:07 UTC / 2017-12-11 07:02:07 Local
Sunset 2017-12-11 23:43:34 UTC / 2017-12-11 16:43:34 Local
Advertisement - Login to hide

Runways

ID Width Length Bearing (true) Bearing (mag) Surface Threshold Offset Overrun Length
02 75 ft / 23 m 6,331 ft / 1,930 m 34.07° 26.35° Asphalt 0 ft / 0 m 240 ft / 73 m
07 75 ft / 23 m 4,394 ft / 1,339 m 77.55° 69.83° Asphalt 0 ft / 0 m 0 ft / 0 m
20 75 ft / 23 m 6,331 ft / 1,930 m 214.08° 206.36° Asphalt 0 ft / 0 m 0 ft / 0 m
25 75 ft / 23 m 4,394 ft / 1,339 m 257.56° 249.84° Asphalt 0 ft / 0 m 600 ft / 183 m

Map

Weather


0- 5 10 15 20 25 30 35+ Temperature / ° C

Clouds and Precipitation
Forecast for 2017-12-12 00:00 UTC. Updated 5 minutes ago

Ground ~20,000 ft ~40,000 ft Winds

METAR

KRTN 112253Z AUTO 21006KT 10SM CLR 14/M21 A3030 RMK AO2 SLP246 T01441206

TAF

Not found

Frequencies

Recorded 118.37 MHz ASOS
Unicom 122.80 MHz CTAF/UNICOM
Warning: Do not use this data for real-world aviation or navigation. No guarantee of current accuracy is given.